Time;durP1;ratioP1;P1;durP2;ratioP2;P2;SDS_P1;SDS_P2;PMS_P1;PMS_P2;Temp;Humidity;BMP_temperature;BMP_pressure;BME280_temperature;BME280_humidity;BME280_pressure;Samples;Min_cycle;Max_cycle;Signal;HPM_P1;HPM_P2
2021/04/14 00:01:06;;;;;;;3.58;3.20;;;4.20;92.30;;;;;;5095508;28;20222;-71
2021/04/14 00:03:33;;;;;;;4.18;2.88;;;4.20;92.40;;;;;;5095610;28;20297;-71
2021/04/14 00:05:59;;;;;;;4.05;2.65;;;4.20;92.50;;;;;;5095089;28;20205;-71
2021/04/14 00:08:29;;;;;;;4.80;3.03;;;4.20;92.60;;;;;;5095363;28;20206;-72
2021/04/14 00:10:56;;;;;;;3.92;2.58;;;4.20;92.90;;;;;;5095896;28;20584;-71
2021/04/14 00:13:32;;;;;;;4.72;2.88;;;4.20;92.80;;;;;;5095478;28;20600;-71
2021/04/14 00:15:59;;;;;;;5.72;3.00;;;4.10;92.70;;;;;;5095420;28;20615;-71
2021/04/14 00:18:26;;;;;;;3.53;2.75;;;4.10;92.60;;;;;;5094948;28;20198;-71
2021/04/14 00:20:53;;;;;;;5.15;3.10;;;4.10;92.60;;;;;;5095227;28;20232;-71
2021/04/14 00:23:22;;;;;;;5.35;3.28;;;4.10;92.70;;;;;;5095079;28;20658;-72
2021/04/14 00:25:51;;;;;;;3.53;2.65;;;4.10;92.60;;;;;;5095024;28;20202;-71
2021/04/14 00:28:22;;;;;;;3.65;2.63;;;4.00;92.60;;;;;;5094820;28;20209;-71
2021/04/14 00:30:49;;;;;;;3.05;2.38;;;3.90;92.90;;;;;;5094925;28;20234;-70
2021/04/14 00:33:16;;;;;;;4.10;2.38;;;3.90;93.40;;;;;;5095128;28;20226;-71
2021/04/14 00:35:43;;;;;;;3.90;2.33;;;3.80;93.30;;;;;;5094732;28;20206;-71
2021/04/14 00:38:12;;;;;;;3.30;2.72;;;3.70;93.70;;;;;;5094725;28;20293;-71
2021/04/14 00:40:40;;;;;;;3.42;2.35;;;3.60;94.30;;;;;;5094682;28;20228;-71
2021/04/14 00:43:11;;;;;;;4.22;3.17;;;3.60;94.60;;;;;;5094688;28;20198;-72
2021/04/14 00:45:38;;;;;;;3.25;2.95;;;3.60;94.70;;;;;;5094466;28;20672;-71
2021/04/14 00:48:05;;;;;;;5.00;3.03;;;3.60;94.70;;;;;;5094645;28;20213;-76
2021/04/14 00:50:34;;;;;;;3.20;2.78;;;3.60;94.70;;;;;;5094636;28;20217;-75
2021/04/14 00:53:00;;;;;;;2.83;2.58;;;3.60;94.90;;;;;;5094811;28;20334;-75
2021/04/14 00:55:29;;;;;;;4.47;2.67;;;3.60;95.40;;;;;;5095065;28;20300;-71
2021/04/14 00:57:56;;;;;;;3.60;2.72;;;3.60;95.70;;;;;;5095801;28;20289;-71
2021/04/14 01:00:31;;;;;;;4.45;3.50;;;3.70;95.80;;;;;;5095625;28;20264;-71
2021/04/14 01:02:58;;;;;;;4.40;3.42;;;3.70;95.90;;;;;;5095954;28;20211;-70
2021/04/14 01:05:26;;;;;;;5.07;3.67;;;3.80;96.20;;;;;;5095842;28;20292;-70
2021/04/14 01:07:52;;;;;;;6.25;4.28;;;3.80;96.50;;;;;;5095028;28;20202;-70
2021/04/14 01:10:19;;;;;;;5.82;3.80;;;3.80;96.80;;;;;;5095966;28;20313;-70
2021/04/14 01:12:46;;;;;;;6.03;4.53;;;3.80;97.00;;;;;;5095543;28;20257;-70
2021/04/14 01:15:18;;;;;;;6.05;4.07;;;3.90;97.00;;;;;;5095418;28;20220;-70
2021/04/14 01:17:45;;;;;;;7.68;4.50;;;3.90;97.00;;;;;;5095695;28;20285;-70
2021/04/14 01:20:12;;;;;;;5.40;3.15;;;3.90;97.10;;;;;;5095510;28;20233;-70
2021/04/14 01:22:39;;;;;;;4.68;3.42;;;3.80;97.00;;;;;;5095695;28;20286;-70
2021/04/14 01:25:08;;;;;;;7.18;4.25;;;3.70;97.20;;;;;;5095448;28;20294;-70
2021/04/14 01:27:34;;;;;;;4.55;3.65;;;3.60;97.50;;;;;;5094901;28;20209;-71
2021/04/14 01:30:01;;;;;;;5.32;4.13;;;3.60;97.60;;;;;;5095337;28;20288;-70
2021/04/14 01:32:29;;;;;;;6.18;3.75;;;3.50;98.00;;;;;;5094746;28;20233;-70
2021/04/14 01:34:56;;;;;;;5.28;3.03;;;3.50;98.30;;;;;;5095381;28;20206;-70
2021/04/14 01:37:22;;;;;;;6.43;3.97;;;3.50;98.40;;;;;;5094915;28;20198;-71
2021/04/14 01:39:49;;;;;;;4.25;3.10;;;3.60;98.10;;;;;;5094990;28;20613;-70
2021/04/14 01:42:16;;;;;;;4.65;3.70;;;3.60;98.40;;;;;;5094892;28;20312;-70
2021/04/14 01:44:42;;;;;;;3.83;3.17;;;3.70;98.50;;;;;;5095140;28;20303;-70
2021/04/14 01:47:08;;;;;;;3.00;2.70;;;3.70;98.30;;;;;;5095190;28;20718;-70
2021/04/14 01:49:34;;;;;;;5.22;3.53;;;3.80;98.30;;;;;;5095136;28;20247;-71
2021/04/14 01:52:01;;;;;;;5.50;3.80;;;3.80;98.20;;;;;;5094602;28;20250;-71
2021/04/14 01:54:27;;;;;;;4.35;3.30;;;3.80;98.30;;;;;;5094595;28;20209;-71
2021/04/14 01:56:55;;;;;;;4.43;3.20;;;3.80;98.20;;;;;;5094675;28;20202;-70
2021/04/14 01:59:21;;;;;;;5.43;3.50;;;3.80;98.00;;;;;;5094840;28;20309;-71
2021/04/14 02:01:47;;;;;;;5.88;4.13;;;3.90;98.10;;;;;;5095039;28;20224;-71
2021/04/14 02:04:14;;;;;;;3.72;2.90;;;3.80;98.00;;;;;;5094784;28;20681;-70
2021/04/14 02:06:40;;;;;;;6.70;3.80;;;3.70;98.10;;;;;;5094076;28;20202;-70
2021/04/14 02:09:06;;;;;;;4.15;3.03;;;3.70;98.00;;;;;;5095105;28;20230;-71
2021/04/14 02:11:33;;;;;;;5.45;3.55;;;3.80;98.00;;;;;;5095489;28;20305;-70
2021/04/14 02:14:00;;;;;;;7.78;3.63;;;3.80;98.20;;;;;;5094812;28;20228;-70
2021/04/14 02:16:26;;;;;;;4.70;3.42;;;3.80;98.10;;;;;;5094369;28;20233;-70
2021/04/14 02:18:53;;;;;;;4.30;3.60;;;3.70;98.20;;;;;;5093873;28;20654;-70
2021/04/14 02:21:20;;;;;;;3.63;2.95;;;3.70;98.10;;;;;;5094038;28;20222;-71
2021/04/14 02:23:46;;;;;;;5.28;3.78;;;3.70;98.40;;;;;;5094235;28;20198;-70
2021/04/14 02:26:15;;;;;;;4.95;3.40;;;3.60;98.50;;;;;;5093761;28;20210;-70
2021/04/14 02:28:44;;;;;;;3.22;2.83;;;3.60;98.70;;;;;;5094442;28;20293;-70
2021/04/14 02:31:11;;;;;;;3.28;2.97;;;3.60;98.50;;;;;;5093959;28;20236;-70
2021/04/14 02:33:38;;;;;;;3.17;2.85;;;3.60;98.70;;;;;;5094683;28;20274;-71
2021/04/14 02:36:05;;;;;;;4.40;3.38;;;3.60;98.80;;;;;;5093606;28;20335;-70
2021/04/14 02:38:32;;;;;;;3.40;3.10;;;3.50;98.80;;;;;;5094114;28;20564;-70
2021/04/14 02:40:58;;;;;;;6.07;4.00;;;3.60;99.00;;;;;;5093841;28;20620;-70
2021/04/14 02:43:24;;;;;;;4.75;3.60;;;3.60;99.20;;;;;;5094179;28;20239;-70
2021/04/14 02:45:51;;;;;;;5.65;4.18;;;3.60;99.30;;;;;;5093935;28;20293;-70
2021/04/14 02:48:18;;;;;;;7.40;3.85;;;3.50;99.20;;;;;;5094199;28;20709;-70
2021/04/14 02:50:44;;;;;;;3.15;2.75;;;3.50;99.10;;;;;;5094346;28;20218;-70
2021/04/14 02:53:11;;;;;;;5.85;3.20;;;3.30;99.10;;;;;;5093920;28;20226;-70
2021/04/14 02:55:38;;;;;;;4.90;3.90;;;3.30;99.40;;;;;;5093624;28;20209;-70
2021/04/14 02:58:04;;;;;;;4.85;3.58;;;3.20;99.60;;;;;;5093921;28;20197;-70
2021/04/14 03:00:31;;;;;;;7.60;3.75;;;3.20;99.90;;;;;;5093726;28;20239;-70
2021/04/14 03:02:58;;;;;;;7.22;3.17;;;3.20;99.90;;;;;;5094373;28;20531;-70
2021/04/14 03:05:30;;;;;;;5.40;3.55;;;3.20;99.90;;;;;;5093454;28;20674;-70
2021/04/14 03:07:57;;;;;;;5.05;3.33;;;3.20;99.90;;;;;;5094079;28;20301;-70
2021/04/14 03:10:24;;;;;;;4.82;3.58;;;3.20;99.80;;;;;;5093966;28;20313;-70
2021/04/14 03:12:52;;;;;;;4.07;3.42;;;3.20;99.90;;;;;;5094269;28;20247;-70
2021/04/14 03:15:21;;;;;;;5.20;3.53;;;3.20;99.90;;;;;;5094157;28;20198;-71
2021/04/14 03:17:47;;;;;;;6.90;3.97;;;3.20;99.80;;;;;;5094067;28;20208;-70
2021/04/14 03:20:14;;;;;;;5.97;3.92;;;3.20;99.80;;;;;;5093566;28;20317;-70
2021/04/14 03:22:41;;;;;;;3.67;2.97;;;3.20;99.90;;;;;;5093519;28;20197;-70
2021/04/14 03:25:09;;;;;;;5.40;3.22;;;3.30;99.90;;;;;;5093757;28;20293;-70
2021/04/14 03:27:35;;;;;;;3.95;3.55;;;3.20;99.70;;;;;;5093688;28;20205;-70
2021/04/14 03:30:03;;;;;;;3.20;2.80;;;3.30;99.60;;;;;;5094100;28;20213;-69
2021/04/14 03:32:29;;;;;;;6.90;4.13;;;3.30;99.60;;;;;;5097462;28;20313;-70
2021/04/14 03:34:55;;;;;;;4.57;3.50;;;3.30;99.50;;;;;;5097380;28;20206;-70
2021/04/14 03:37:22;;;;;;;6.13;3.70;;;3.30;99.70;;;;;;5097328;28;20238;-70
2021/04/14 03:39:49;;;;;;;3.72;3.10;;;3.30;99.60;;;;;;5097638;28;20201;-70
2021/04/14 03:42:16;;;;;;;5.05;3.35;;;3.30;99.40;;;;;;5097569;28;20308;-70
2021/04/14 03:44:42;;;;;;;4.60;3.53;;;3.30;99.40;;;;;;5097108;28;20219;-70
2021/04/14 03:47:08;;;;;;;4.30;3.00;;;3.30;99.40;;;;;;5097131;28;20202;-70
2021/04/14 03:49:36;;;;;;;5.07;3.75;;;3.20;99.70;;;;;;5097178;28;20205;-70
2021/04/14 03:52:02;;;;;;;4.10;2.83;;;3.10;99.90;;;;;;5097332;28;20257;-70
2021/04/14 03:54:29;;;;;;;6.60;3.40;;;3.10;99.90;;;;;;5097238;28;20198;-71
2021/04/14 03:56:56;;;;;;;6.20;3.20;;;3.20;99.90;;;;;;5096703;28;20669;-70
2021/04/14 03:59:22;;;;;;;4.25;3.40;;;3.20;99.90;;;;;;5096931;28;20297;-70
2021/04/14 04:01:49;;;;;;;6.70;3.20;;;3.20;99.90;;;;;;5096809;28;20312;-70
2021/04/14 04:04:15;;;;;;;6.85;3.83;;;2.90;99.90;;;;;;5097137;28;20296;-70
2021/04/14 04:06:42;;;;;;;4.75;4.22;;;3.00;99.90;;;;;;5096704;28;20197;-70
2021/04/14 04:09:08;;;;;;;6.18;4.05;;;3.00;99.90;;;;;;5096949;28;20639;-70
2021/04/14 04:11:34;;;;;;;9.63;4.53;;;3.00;99.90;;;;;;5097334;28;20308;-70
2021/04/14 04:14:02;;;;;;;5.80;3.72;;;3.10;99.90;;;;;;5097846;28;20312;-71
2021/04/14 04:16:28;;;;;;;5.15;3.35;;;3.00;99.90;;;;;;5097642;28;20234;-70
2021/04/14 04:18:54;;;;;;;5.07;3.97;;;3.10;99.90;;;;;;5098200;28;20289;-71
2021/04/14 04:21:22;;;;;;;5.20;3.85;;;3.10;99.90;;;;;;5099019;28;20264;-70
2021/04/14 04:23:49;;;;;;;4.30;3.40;;;3.00;99.90;;;;;;5096876;28;20511;-70
2021/04/14 04:26:16;;;;;;;4.18;3.60;;;2.90;99.90;;;;;;5096465;28;20198;-70
2021/04/14 04:28:42;;;;;;;5.20;3.45;;;3.00;99.90;;;;;;5096574;28;20206;-70
2021/04/14 04:31:10;;;;;;;4.10;3.28;;;3.00;99.90;;;;;;5096376;28;20225;-70
2021/04/14 04:33:37;;;;;;;8.70;4.15;;;3.00;99.90;;;;;;5096474;28;20230;-70
2021/04/14 04:36:03;;;;;;;5.40;3.95;;;3.00;99.90;;;;;;5096161;28;20616;-70
2021/04/14 04:38:30;;;;;;;6.63;4.45;;;3.00;99.90;;;;;;5096198;28;20229;-70
2021/04/14 04:40:56;;;;;;;6.45;3.75;;;3.10;99.90;;;;;;5096285;28;20267;-70
2021/04/14 04:43:23;;;;;;;8.50;4.13;;;3.00;99.90;;;;;;5095428;28;20656;-70
2021/04/14 04:45:51;;;;;;;4.57;3.58;;;3.00;99.90;;;;;;5095742;28;20314;-70
2021/04/14 04:48:18;;;;;;;3.85;3.28;;;3.00;99.90;;;;;;5096288;28;20202;-70
2021/04/14 04:50:45;;;;;;;4.25;3.67;;;3.00;99.90;;;;;;5095849;28;20254;-70
2021/04/14 04:53:15;;;;;;;3.50;3.05;;;3.00;99.90;;;;;;5095886;28;20304;-70
2021/04/14 04:55:42;;;;;;;7.10;4.07;;;2.90;99.90;;;;;;5095340;28;20669;-70
2021/04/14 04:58:08;;;;;;;4.97;3.40;;;2.90;99.90;;;;;;5095728;28;20234;-70
2021/04/14 05:00:35;;;;;;;6.53;3.90;;;2.80;99.90;;;;;;5095948;28;20221;-70
2021/04/14 05:03:01;;;;;;;4.85;3.75;;;2.80;99.90;;;;;;5096271;28;20237;-70
2021/04/14 05:05:30;;;;;;;6.18;4.20;;;2.80;99.90;;;;;;5095905;28;20204;-70
2021/04/14 05:07:56;;;;;;;5.80;4.28;;;2.80;99.90;;;;;;5096197;28;20301;-70
2021/04/14 05:10:23;;;;;;;4.30;3.50;;;2.80;99.90;;;;;;5096370;28;20304;-70
2021/04/14 05:12:51;;;;;;;4.30;3.65;;;2.80;99.90;;;;;;5095895;28;20237;-70
2021/04/14 05:15:22;;;;;;;5.55;3.45;;;2.80;99.90;;;;;;5095778;28;20615;-71
2021/04/14 05:17:48;;;;;;;5.45;3.40;;;2.90;99.90;;;;;;5096113;28;20205;-70
2021/04/14 05:20:15;;;;;;;6.07;4.13;;;2.90;99.90;;;;;;5095782;28;20222;-70
2021/04/14 05:22:44;;;;;;;5.70;3.90;;;2.90;99.90;;;;;;5095072;28;20202;-70
2021/04/14 05:25:14;;;;;;;11.95;4.30;;;2.70;99.90;;;;;;5095471;28;20308;-70
2021/04/14 05:27:41;;;;;;;7.05;4.57;;;2.50;99.90;;;;;;5095317;28;20240;-70
2021/04/14 05:30:09;;;;;;;7.93;4.05;;;2.40;99.90;;;;;;5095223;28;20543;-70
2021/04/14 05:32:35;;;;;;;7.53;4.82;;;2.20;99.90;;;;;;5095143;28;20222;-70
2021/04/14 05:35:01;;;;;;;5.25;4.00;;;2.10;99.90;;;;;;5095670;28;20650;-70
2021/04/14 05:37:28;;;;;;;7.13;4.60;;;2.00;99.90;;;;;;5095337;28;20676;-70
2021/04/14 05:39:55;;;;;;;7.20;5.15;;;1.90;99.90;;;;;;5095538;28;20229;-70
2021/04/14 05:42:22;;;;;;;6.80;4.68;;;1.90;99.90;;;;;;5095443;28;20220;-70
2021/04/14 05:44:49;;;;;;;7.10;5.30;;;1.90;99.90;;;;;;5095203;28;20297;-70
2021/04/14 05:47:15;;;;;;;12.15;6.50;;;2.10;99.90;;;;;;5094663;28;20206;-70
2021/04/14 05:49:42;;;;;;;10.13;6.93;;;2.20;99.90;;;;;;5095227;28;20198;-70
2021/04/14 05:52:08;;;;;;;8.52;5.85;;;2.40;99.90;;;;;;5094895;28;20253;-70
2021/04/14 05:54:35;;;;;;;9.10;6.28;;;2.50;99.90;;;;;;5094708;28;20665;-71
2021/04/14 05:57:02;;;;;;;12.50;6.95;;;2.80;99.90;;;;;;5094647;28;20206;-70
2021/04/14 05:59:28;;;;;;;9.65;6.30;;;2.90;99.90;;;;;;5095022;28;20210;-70
2021/04/14 06:01:55;;;;;;;9.20;7.20;;;3.10;99.90;;;;;;5094911;28;20260;-70
2021/04/14 06:04:21;;;;;;;10.93;5.97;;;3.30;99.90;;;;;;5094595;28;20200;-70
2021/04/14 06:06:47;;;;;;;8.88;6.88;;;3.30;99.90;;;;;;5094514;28;20622;-70
2021/04/14 06:09:14;;;;;;;8.38;5.90;;;3.40;99.90;;;;;;5094633;28;20296;-70
2021/04/14 06:11:40;;;;;;;10.20;6.80;;;3.40;99.90;;;;;;5094702;28;20312;-70
2021/04/14 06:14:08;;;;;;;9.75;7.40;;;3.50;99.90;;;;;;5094549;28;20720;-70
2021/04/14 06:16:34;;;;;;;10.95;7.38;;;3.50;99.90;;;;;;5093896;28;20206;-70
2021/04/14 06:19:00;;;;;;;9.82;6.93;;;3.60;99.90;;;;;;5094259;28;20293;-71
2021/04/14 06:21:28;;;;;;;11.98;7.47;;;3.80;99.90;;;;;;5094599;28;20253;-71
2021/04/14 06:23:54;;;;;;;9.18;5.35;;;3.80;99.90;;;;;;5094457;28;20198;-71
2021/04/14 06:26:30;;;;;;;8.40;5.38;;;3.70;99.90;;;;;;5093985;28;20249;-70
2021/04/14 06:28:56;;;;;;;8.85;6.10;;;3.60;99.90;;;;;;5094005;28;20284;-70
2021/04/14 06:31:25;;;;;;;13.15;7.10;;;3.40;99.90;;;;;;5094059;28;20278;-70
2021/04/14 06:33:53;;;;;;;10.20;6.50;;;3.30;99.90;;;;;;5094056;28;20222;-71
2021/04/14 06:36:19;;;;;;;10.27;6.45;;;3.20;99.90;;;;;;5093906;28;20202;-70
2021/04/14 06:38:47;;;;;;;11.43;7.00;;;3.20;99.90;;;;;;5094262;28;20295;-71
2021/04/14 06:41:44;;;;;;;8.73;6.38;;;3.30;99.90;;;;;;5094275;28;20260;-70
2021/04/14 06:44:21;;;;;;;11.75;7.15;;;3.40;99.90;;;;;;5094007;28;20213;-70
2021/04/14 06:46:52;;;;;;;11.93;8.48;;;3.60;99.90;;;;;;5093977;28;20571;-70
2021/04/14 06:49:24;;;;;;;16.33;6.90;;;3.70;99.90;;;;;;5094211;28;20288;-71
2021/04/14 06:51:57;;;;;;;9.05;7.50;;;3.90;99.90;;;;;;5094219;28;20408;-70
2021/04/14 06:54:35;;;;;;;13.45;7.38;;;3.90;99.90;;;;;;5093705;28;20232;-71
2021/04/14 06:57:08;;;;;;;13.75;7.75;;;4.00;99.90;;;;;;5093788;28;20201;-71
2021/04/14 06:59:36;;;;;;;12.52;8.20;;;4.20;99.90;;;;;;5093902;28;20304;-71
2021/04/14 07:02:05;;;;;;;13.18;8.57;;;4.50;99.90;;;;;;5094251;28;20226;-71
2021/04/14 07:04:37;;;;;;;14.50;9.30;;;4.70;99.90;;;;;;5093944;28;20772;-71
2021/04/14 07:07:08;;;;;;;12.18;9.07;;;5.00;99.80;;;;;;5093442;28;20209;-71
2021/04/14 07:09:37;;;;;;;12.52;8.85;;;5.00;98.40;;;;;;5093850;28;20202;-70
2021/04/14 07:12:07;;;;;;;21.38;10.15;;;5.00;98.90;;;;;;5094046;28;20661;-71
2021/04/14 07:14:34;;;;;;;11.88;9.15;;;4.80;98.10;;;;;;5093305;28;20268;-70
2021/04/14 07:17:12;;;;;;;11.40;8.90;;;4.90;98.90;;;;;;5093196;28;20213;-70
2021/04/14 07:19:58;;;;;;;16.17;10.05;;;4.80;98.60;;;;;;5093434;28;20211;-71
2021/04/14 07:22:44;;;;;;;16.85;10.18;;;4.70;98.70;;;;;;5093712;28;20277;-70
2021/04/14 07:25:15;;;;;;;15.73;9.50;;;4.70;99.40;;;;;;5093544;28;20206;-70
2021/04/14 07:27:55;;;;;;;12.20;8.55;;;4.70;98.70;;;;;;5093314;28;20217;-70
2021/04/14 07:30:26;;;;;;;11.85;9.05;;;4.60;99.00;;;;;;5093480;28;20226;-70
2021/04/14 07:33:05;;;;;;;15.73;8.90;;;4.70;99.10;;;;;;5093873;28;20210;-71
2021/04/14 07:35:36;;;;;;;12.02;9.15;;;4.70;98.80;;;;;;5093590;28;20208;-71
2021/04/14 07:38:10;;;;;;;16.98;10.02;;;4.80;99.00;;;;;;5093903;28;20229;-71
2021/04/14 07:40:42;;;;;;;11.23;8.65;;;4.70;99.20;;;;;;5093426;28;20254;-70
2021/04/14 07:43:16;;;;;;;9.95;7.03;;;4.80;98.80;;;;;;5093955;28;20187;-70
2021/04/14 07:45:43;;;;;;;11.43;7.45;;;5.10;99.00;;;;;;5093409;28;20288;-70
2021/04/14 07:48:15;;;;;;;9.00;6.18;;;5.10;98.20;;;;;;5093517;28;20233;-70
2021/04/14 07:50:49;;;;;;;7.13;6.38;;;5.10;97.90;;;;;;5093465;28;20309;-71
2021/04/14 07:53:19;;;;;;;10.10;6.53;;;5.10;97.70;;;;;;5102923;28;20229;-71
2021/04/14 07:55:46;;;;;;;8.55;5.50;;;5.20;97.00;;;;;;5101600;28;20654;-71
2021/04/14 07:58:16;;;;;;;8.73;6.05;;;5.20;96.40;;;;;;5100654;28;20194;-71
2021/04/14 08:00:43;;;;;;;8.05;5.53;;;5.20;96.90;;;;;;5093231;28;20222;-71
2021/04/14 08:03:14;;;;;;;8.02;5.45;;;5.40;97.00;;;;;;5093097;28;20293;-70
2021/04/14 08:05:41;;;;;;;7.25;5.38;;;5.60;96.50;;;;;;5095337;28;20190;-75
2021/04/14 08:08:23;;;;;;;6.25;5.20;;;5.80;95.70;;;;;;5100732;28;20205;-76
2021/04/14 08:10:58;;;;;;;7.80;5.10;;;6.40;94.90;;;;;;5100376;28;20318;-75
2021/04/14 08:13:31;;;;;;;11.02;5.93;;;6.80;94.00;;;;;;5102223;28;20249;-75
2021/04/14 08:15:57;;;;;;;7.15;4.80;;;7.10;92.70;;;;;;5101509;28;20212;-75
2021/04/14 08:18:29;;;;;;;5.40;4.90;;;6.90;92.00;;;;;;5103688;28;20610;-75
2021/04/14 08:21:09;;;;;;;7.47;5.15;;;6.90;92.90;;;;;;5095164;28;20237;-76
2021/04/14 08:23:36;;;;;;;5.40;4.72;;;6.50;92.50;;;;;;5096878;28;20194;-70
2021/04/14 08:26:14;;;;;;;6.40;4.13;;;6.50;93.00;;;;;;5096271;28;20198;-69
2021/04/14 08:28:44;;;;;;;4.38;3.97;;;6.70;92.70;;;;;;5096479;28;20658;-69
2021/04/14 08:31:19;;;;;;;4.82;4.22;;;6.80;92.20;;;;;;5096182;28;20222;-69
2021/04/14 08:33:47;;;;;;;5.15;4.63;;;6.80;91.20;;;;;;5096348;28;20205;-69
2021/04/14 08:36:20;;;;;;;4.82;4.32;;;6.70;92.10;;;;;;5096266;28;20301;-69
2021/04/14 08:38:47;;;;;;;6.05;4.65;;;6.70;91.70;;;;;;5096353;28;20212;-69
2021/04/14 08:41:23;;;;;;;6.40;4.28;;;6.80;91.70;;;;;;5095841;28;20229;-69
2021/04/14 08:43:52;;;;;;;5.10;4.60;;;6.90;91.40;;;;;;5096509;28;20280;-69
2021/04/14 08:46:26;;;;;;;7.72;4.60;;;7.10;90.90;;;;;;5096039;28;20259;-69
2021/04/14 08:48:57;;;;;;;4.95;4.35;;;7.30;90.50;;;;;;5095798;28;20724;-69
2021/04/14 08:51:24;;;;;;;6.97;4.63;;;7.50;91.00;;;;;;5095976;28;20225;-69
2021/04/14 08:53:56;;;;;;;6.40;4.03;;;7.80;90.20;;;;;;5095868;28;20239;-69
2021/04/14 08:56:24;;;;;;;6.57;4.70;;;8.10;90.10;;;;;;5095606;28;20684;-69
2021/04/14 08:58:52;;;;;;;5.80;4.30;;;8.40;88.40;;;;;;5096181;28;20646;-69
2021/04/14 09:01:18;;;;;;;4.90;4.10;;;9.00;85.60;;;;;;5095748;28;20773;-70
2021/04/14 09:03:47;;;;;;;7.47;4.50;;;8.70;82.30;;;;;;5095809;28;20198;-69
2021/04/14 09:06:16;;;;;;;4.47;4.03;;;8.80;84.00;;;;;;5095295;28;20685;-70
2021/04/14 09:08:45;;;;;;;7.97;4.05;;;9.30;82.40;;;;;;5095676;28;20551;-70
2021/04/14 09:11:21;;;;;;;7.90;4.93;;;9.90;80.40;;;;;;5095545;28;20652;-70
2021/04/14 09:14:00;;;;;;;5.57;4.53;;;10.50;75.50;;;;;;5095460;28;20627;-70
2021/04/14 09:16:33;;;;;;;4.88;4.03;;;11.00;71.90;;;;;;5095326;28;20224;-69
2021/04/14 09:19:13;;;;;;;6.65;3.95;;;12.00;65.80;;;;;;5095729;28;20206;-69
2021/04/14 09:21:46;;;;;;;8.48;4.65;;;11.50;67.00;;;;;;5095382;28;20226;-70
2021/04/14 09:24:45;;;;;;;6.38;4.40;;;11.30;65.50;;;;;;5096248;28;20205;-70
2021/04/14 09:27:31;;;;;;;5.75;4.00;;;11.60;67.10;;;;;;5083570;28;20657;-70
2021/04/14 09:30:03;;;;;;;5.35;4.80;;;12.10;62.60;;;;;;5094835;28;20202;-70
2021/04/14 09:32:50;;;;;;;4.63;4.20;;;12.10;64.20;;;;;;5095359;28;20277;-70
2021/04/14 09:35:19;;;;;;;5.65;3.83;;;11.90;59.90;;;;;;5095163;28;20182;-70
2021/04/14 09:37:47;;;;;;;5.65;3.90;;;12.80;58.90;;;;;;5095277;28;20206;-70
2021/04/14 09:40:25;;;;;;;4.15;3.45;;;13.90;57.50;;;;;;5095001;28;20295;-70
2021/04/14 09:42:51;;;;;;;4.13;3.30;;;16.00;54.70;;;;;;5095494;28;20190;-71
2021/04/14 09:45:32;;;;;;;5.50;3.85;;;17.10;48.60;;;;;;5095012;28;20202;-70
2021/04/14 09:48:01;;;;;;;5.55;4.07;;;17.40;45.60;;;;;;5094931;28;20206;-70
2021/04/14 09:50:40;;;;;;;5.35;3.50;;;17.20;46.30;;;;;;5095073;28;20639;-70
2021/04/14 09:53:20;;;;;;;4.32;3.78;;;17.80;46.00;;;;;;5095201;28;20208;-70
2021/04/14 09:55:50;;;;;;;4.65;3.50;;;17.30;44.20;;;;;;5094393;28;20307;-70
2021/04/14 09:58:28;;;;;;;4.15;3.72;;;16.20;45.10;;;;;;5095597;28;20208;-70
2021/04/14 10:00:58;;;;;;;4.13;3.67;;;16.60;44.10;;;;;;5094760;28;20312;-70
2021/04/14 10:03:30;;;;;;;4.73;3.60;;;18.00;44.30;;;;;;5095227;28;20238;-71
2021/04/14 10:06:08;;;;;;;3.60;2.95;;;19.00;40.40;;;;;;5094491;28;20498;-70
2021/04/14 10:08:37;;;;;;;3.75;2.72;;;19.20;38.90;;;;;;5094594;28;20261;-70
2021/04/14 10:11:03;;;;;;;2.90;2.70;;;15.40;37.60;;;;;;5094216;28;20226;-70
2021/04/14 10:13:32;;;;;;;2.55;2.25;;;12.90;42.10;;;;;;5094917;28;20218;-70
2021/04/14 10:16:00;;;;;;;3.42;3.10;;;11.60;46.50;;;;;;5094553;28;20273;-69
2021/04/14 10:18:28;;;;;;;3.58;3.28;;;10.50;48.90;;;;;;5094668;28;20293;-69
2021/04/14 10:20:55;;;;;;;3.88;2.97;;;10.00;51.40;;;;;;5093942;28;20316;-69
2021/04/14 10:23:24;;;;;;;4.57;3.10;;;9.60;51.10;;;;;;5094283;28;20338;-70
2021/04/14 10:26:03;;;;;;;4.40;3.20;;;9.10;51.70;;;;;;5094046;28;20228;-69
2021/04/14 10:28:29;;;;;;;3.50;3.20;;;8.60;54.10;;;;;;5094106;28;20227;-69
2021/04/14 10:31:04;;;;;;;4.30;3.88;;;8.30;57.50;;;;;;5094259;28;20736;-69
2021/04/14 10:33:30;;;;;;;8.90;4.18;;;8.40;60.10;;;;;;5094119;28;20202;-69
2021/04/14 10:36:07;;;;;;;4.30;3.53;;;8.70;63.90;;;;;;5093937;28;20208;-69
2021/04/14 10:38:35;;;;;;;3.75;3.00;;;8.90;63.00;;;;;;5094404;28;20212;-69
2021/04/14 10:41:17;;;;;;;3.70;3.00;;;9.00;63.10;;;;;;5093343;28;20309;-69
2021/04/14 10:43:44;;;;;;;3.00;2.78;;;9.20;64.30;;;;;;5094036;28;20205;-69
2021/04/14 10:46:13;;;;;;;3.58;3.28;;;9.40;65.30;;;;;;5093704;28;20208;-69
2021/04/14 10:48:43;;;;;;;4.32;3.20;;;9.50;64.80;;;;;;5094172;28;20296;-69
2021/04/14 10:51:12;;;;;;;4.00;3.20;;;9.50;63.80;;;;;;5093850;28;20240;-69
2021/04/14 10:53:41;;;;;;;4.25;3.38;;;10.10;61.70;;;;;;5093455;28;20218;-69
2021/04/14 10:56:18;;;;;;;4.70;3.13;;;10.90;58.00;;;;;;5093350;28;20206;-69
2021/04/14 10:58:45;;;;;;;4.35;3.95;;;11.60;55.60;;;;;;5093567;28;20280;-69
2021/04/14 11:01:14;;;;;;;5.10;3.65;;;12.10;53.50;;;;;;5093370;28;20727;-70
2021/04/14 11:03:46;;;;;;;3.75;3.40;;;12.80;52.60;;;;;;5094303;28;20284;-69
2021/04/14 11:06:15;;;;;;;3.95;3.33;;;13.40;51.10;;;;;;5093595;28;20277;-70
2021/04/14 11:08:43;;;;;;;3.20;3.00;;;14.40;48.80;;;;;;5093818;28;20198;-70
2021/04/14 11:11:10;;;;;;;4.05;2.80;;;15.60;46.30;;;;;;5093364;28;20263;-70
2021/04/14 11:13:42;;;;;;;3.50;3.20;;;16.60;43.40;;;;;;5093534;28;20225;-70
2021/04/14 11:16:11;;;;;;;3.38;2.70;;;17.30;41.80;;;;;;5093512;28;20305;-70
2021/04/14 11:18:41;;;;;;;2.95;2.63;;;18.40;40.10;;;;;;5093650;28;20202;-70
2021/04/14 11:21:22;;;;;;;3.17;2.97;;;19.00;38.80;;;;;;5093536;28;20226;-70
2021/04/14 11:23:48;;;;;;;3.00;2.80;;;19.20;37.00;;;;;;5093578;28;20931;-70
2021/04/14 11:26:18;;;;;;;3.08;2.88;;;17.80;36.20;;;;;;5093302;28;20206;-70
2021/04/14 11:28:48;;;;;;;4.35;3.92;;;16.60;37.70;;;;;;5093737;28;20304;-70
2021/04/14 11:31:27;;;;;;;3.95;3.47;;;15.70;40.40;;;;;;5093359;28;20233;-70
2021/04/14 11:33:54;;;;;;;4.90;3.45;;;14.90;42.10;;;;;;5093500;28;20210;-70
2021/04/14 11:36:28;;;;;;;3.50;3.20;;;14.30;42.20;;;;;;5093168;28;20198;-69
2021/04/14 11:39:00;;;;;;;3.15;2.85;;;14.20;42.80;;;;;;5093647;28;20292;-70
2021/04/14 11:41:29;;;;;;;3.40;3.10;;;14.20;43.80;;;;;;5092832;28;20278;-70
2021/04/14 11:43:57;;;;;;;4.07;3.50;;;13.10;42.00;;;;;;5093297;28;20204;-69
2021/04/14 11:46:33;;;;;;;2.92;2.72;;;11.90;44.00;;;;;;5093294;28;20205;-69
2021/04/14 11:49:02;;;;;;;3.45;3.15;;;11.70;46.70;;;;;;5093339;28;20248;-70
2021/04/14 11:51:34;;;;;;;5.35;3.63;;;11.90;46.80;;;;;;5093889;28;20309;-70
2021/04/14 11:54:04;;;;;;;4.15;3.40;;;11.80;47.40;;;;;;5096761;28;20700;-70
2021/04/14 11:56:36;;;;;;;3.90;3.50;;;11.90;46.20;;;;;;5096612;28;20216;-69
2021/04/14 11:59:07;;;;;;;3.90;2.78;;;12.20;46.60;;;;;;5097264;28;20206;-70
2021/04/14 12:01:35;;;;;;;3.55;3.10;;;12.30;46.80;;;;;;5097133;28;20336;-70
2021/04/14 12:04:12;;;;;;;4.25;3.30;;;12.30;45.70;;;;;;5096907;28;20205;-69
2021/04/14 12:06:38;;;;;;;2.85;2.55;;;12.20;46.00;;;;;;5096403;28;20593;-70
2021/04/14 12:09:05;;;;;;;2.80;2.60;;;12.10;45.80;;;;;;5096458;28;20202;-69
2021/04/14 12:11:32;;;;;;;4.50;2.95;;;11.00;45.90;;;;;;5096708;28;20253;-70
2021/04/14 12:13:58;;;;;;;3.75;3.20;;;10.40;47.20;;;;;;5096878;28;20572;-69
2021/04/14 12:16:26;;;;;;;3.67;3.38;;;10.30;49.00;;;;;;5096804;28;20263;-70
2021/04/14 12:18:52;;;;;;;2.85;2.65;;;10.50;50.60;;;;;;5097357;28;20205;-70
2021/04/14 12:21:19;;;;;;;4.05;2.78;;;10.50;49.60;;;;;;5096833;28;20792;-69
2021/04/14 12:23:47;;;;;;;4.60;3.03;;;10.60;49.70;;;;;;5096671;28;20589;-70
2021/04/14 12:26:13;;;;;;;3.35;3.05;;;10.70;50.70;;;;;;5096405;28;20284;-69
2021/04/14 12:28:39;;;;;;;3.65;3.25;;;10.80;50.50;;;;;;5097006;28;20315;-70
2021/04/14 12:31:06;;;;;;;3.67;3.38;;;11.00;50.60;;;;;;5096167;28;20740;-69
2021/04/14 12:33:33;;;;;;;3.97;3.10;;;10.90;52.30;;;;;;5095938;28;20313;-69
2021/04/14 12:35:59;;;;;;;3.47;2.90;;;10.00;55.50;;;;;;5095896;28;20247;-70
2021/04/14 12:38:26;;;;;;;2.83;2.63;;;9.40;58.20;;;;;;5096425;28;20202;-69
2021/04/14 12:40:56;;;;;;;4.63;3.05;;;8.60;60.50;;;;;;5096220;28;20334;-69
2021/04/14 12:43:22;;;;;;;3.35;2.78;;;8.50;62.60;;;;;;5096723;28;20527;-69
2021/04/14 12:45:50;;;;;;;4.80;3.30;;;8.30;63.20;;;;;;5096200;28;20560;-69
2021/04/14 12:48:18;;;;;;;3.72;2.95;;;8.00;63.20;;;;;;5095760;28;20251;-69
2021/04/14 12:51:08;;;;;;;5.18;3.40;;;7.90;65.80;;;;;;5096053;28;20313;-69
2021/04/14 12:53:42;;;;;;;5.85;3.20;;;7.90;66.20;;;;;;5096034;28;20304;-69
2021/04/14 12:56:14;;;;;;;3.55;3.15;;;8.10;67.80;;;;;;5096116;28;20631;-69
2021/04/14 12:58:42;;;;;;;3.70;3.30;;;8.00;67.90;;;;;;5095907;28;20642;-69
2021/04/14 13:01:10;;;;;;;7.05;3.35;;;8.00;68.90;;;;;;5095772;28;20233;-69
2021/04/14 13:03:45;;;;;;;4.53;3.75;;;7.90;69.40;;;;;;5095249;28;20209;-69